createdAt,value
2023-01-15T00:02:50.186Z,2.01
2023-01-15T00:07:52.297Z,2.03
2023-01-15T00:12:53.927Z,1.88
2023-01-15T00:17:55.615Z,1.84
2023-01-15T00:22:57.348Z,1.89
2023-01-15T00:28:01.560Z,1.92
2023-01-15T00:33:03.346Z,1.74
2023-01-15T00:38:04.998Z,1.94
2023-01-15T00:43:06.753Z,1.95
2023-01-15T00:48:09.193Z,1.88
2023-01-15T00:53:10.818Z,1.82
2023-01-15T00:58:12.440Z,1.86
2023-01-15T01:03:14.113Z,1.88
2023-01-15T01:08:16.640Z,1.92
2023-01-15T01:13:18.287Z,1.93
2023-01-15T01:18:20.036Z,1.83
2023-01-15T01:23:24.445Z,1.91
2023-01-15T01:28:26.105Z,1.86
2023-01-15T01:33:27.932Z,1.88
2023-01-15T01:38:29.601Z,1.85
2023-01-15T01:43:31.769Z,1.80
2023-01-15T01:48:34.535Z,1.88
2023-01-15T01:53:36.200Z,1.78
2023-01-15T01:58:38.932Z,1.87
2023-01-15T02:03:40.694Z,1.70
2023-01-15T02:08:43.053Z,1.58
2023-01-15T02:13:57.405Z,1.62
2023-01-15T02:19:36.133Z,1.55
2023-01-15T02:24:49.844Z,1.58
2023-01-15T02:30:04.547Z,1.63
2023-01-15T02:35:13.088Z,1.66
2023-01-15T02:40:16.207Z,1.65
2023-01-15T02:45:24.460Z,1.58
2023-01-15T02:50:32.011Z,1.48
2023-01-15T02:55:43.843Z,1.57
2023-01-15T03:00:49.815Z,1.45
2023-01-15T03:06:00.499Z,1.43
2023-01-15T03:11:10.004Z,1.42
2023-01-15T03:16:38.508Z,1.37
2023-01-15T03:21:59.957Z,1.08
2023-01-15T03:27:02.088Z,1.22
2023-01-15T03:32:04.989Z,1.35
2023-01-15T03:37:06.856Z,1.17
2023-01-15T03:42:20.323Z,1.10
2023-01-15T03:47:42.547Z,1.17
2023-01-15T03:53:02.834Z,1.08
2023-01-15T03:58:16.248Z,1.03
2023-01-15T04:03:20.641Z,1.07
2023-01-15T04:08:23.411Z,1.28
2023-01-15T04:13:25.668Z,1.09
2023-01-15T04:18:27.833Z,1.15
2023-01-15T04:23:29.494Z,1.09
2023-01-15T04:28:31.201Z,1.23
2023-01-15T04:33:32.916Z,1.25
2023-01-15T04:38:34.997Z,1.14
2023-01-15T04:43:55.300Z,1.11
2023-01-15T04:48:56.970Z,1.02
2023-01-15T04:53:59.416Z,1.14
2023-01-15T04:59:02.765Z,0.94
2023-01-15T05:04:05.051Z,0.95
2023-01-15T05:09:07.237Z,0.96
2023-01-15T05:14:09.406Z,0.81
2023-01-15T05:19:11.165Z,0.90
2023-01-15T05:24:17.720Z,0.89
2023-01-15T05:29:19.430Z,0.93
2023-01-15T05:34:21.156Z,1.06
2023-01-15T05:39:22.825Z,1.09
2023-01-15T05:44:27.154Z,0.91
2023-01-15T05:49:32.855Z,0.92
2023-01-15T05:54:35.919Z,0.91
2023-01-15T05:59:43.436Z,1.04
2023-01-15T06:04:50.075Z,0.85
2023-01-15T06:09:52.240Z,1.03
2023-01-15T06:14:53.925Z,0.94
2023-01-15T06:19:55.622Z,0.98
2023-01-15T06:24:57.293Z,0.95
2023-01-15T06:29:59.146Z,0.92
2023-01-15T06:35:00.779Z,0.92
2023-01-15T06:40:02.478Z,0.83
2023-01-15T06:45:26.047Z,0.82
2023-01-15T06:50:28.337Z,0.87
2023-01-15T06:55:30.078Z,0.94
2023-01-15T07:00:31.919Z,0.92
2023-01-15T07:05:33.676Z,0.87
2023-01-15T07:10:36.304Z,0.84
2023-01-15T07:15:39.819Z,0.84
2023-01-15T07:20:42.133Z,0.79
2023-01-15T07:25:43.804Z,0.98
2023-01-15T07:30:45.986Z,1.00
2023-01-15T07:35:47.744Z,1.05
2023-01-15T07:41:09.763Z,1.07
2023-01-15T07:46:30.326Z,1.10
2023-01-15T07:51:31.992Z,1.18
2023-01-15T07:56:33.724Z,1.24
2023-01-15T08:01:35.454Z,0.89
2023-01-15T08:06:37.650Z,1.17
2023-01-15T08:11:58.178Z,1.32
2023-01-15T08:16:59.880Z,1.36
2023-01-15T08:22:01.953Z,1.34
2023-01-15T08:27:04.187Z,1.47
2023-01-15T08:32:06.106Z,1.50
2023-01-15T08:37:07.930Z,1.58
2023-01-15T08:42:09.765Z,1.59
2023-01-15T08:47:11.441Z,1.58
2023-01-15T08:52:13.289Z,1.64
2023-01-15T08:57:14.948Z,1.61
2023-01-15T09:02:17.807Z,1.66
2023-01-15T09:07:19.615Z,1.77
2023-01-15T09:12:24.901Z,1.77
2023-01-15T09:17:26.669Z,1.86
2023-01-15T09:22:31.238Z,1.89
2023-01-15T09:27:34.465Z,1.97
2023-01-15T09:32:36.113Z,2.04
2023-01-15T09:37:37.856Z,2.09
2023-01-15T09:42:46.216Z,2.13
2023-01-15T09:48:32.305Z,2.26
2023-01-15T09:53:46.221Z,2.37
2023-01-15T09:58:48.067Z,2.44
2023-01-15T10:04:31.362Z,2.47
2023-01-15T10:09:37.781Z,2.52
2023-01-15T10:15:02.405Z,2.53
2023-01-15T10:20:04.380Z,2.50
2023-01-15T10:25:14.985Z,2.55
2023-01-15T10:30:22.710Z,2.60
2023-01-15T10:35:27.166Z,2.62
2023-01-15T10:40:58.100Z,2.74
2023-01-15T10:46:11.889Z,2.73
2023-01-15T10:51:28.902Z,2.85
2023-01-15T10:56:49.091Z,2.93
2023-01-15T11:01:54.275Z,2.93
2023-01-15T11:06:56.128Z,2.97
2023-01-15T11:12:20.528Z,3.13
2023-01-15T11:17:43.292Z,3.11
2023-01-15T11:22:45.343Z,3.04
2023-01-15T11:27:49.896Z,3.06
2023-01-15T11:32:57.009Z,3.33
2023-01-15T11:38:13.629Z,3.08
2023-01-15T11:43:38.258Z,3.23
2023-01-15T11:49:06.476Z,3.10
2023-01-15T11:54:12.500Z,3.33
2023-01-15T11:59:19.921Z,3.61
2023-01-15T12:04:34.783Z,3.27
2023-01-15T12:09:45.451Z,3.22
2023-01-15T12:15:06.944Z,3.42
2023-01-15T12:20:37.975Z,3.25
2023-01-15T12:26:17.836Z,3.40
2023-01-15T12:32:07.401Z,3.28
2023-01-15T12:37:21.229Z,3.26
2023-01-15T12:42:44.076Z,3.38
2023-01-15T12:48:07.069Z,3.31
2023-01-15T12:53:11.822Z,3.46
2023-01-15T12:58:36.520Z,3.40
2023-01-15T13:03:51.580Z,3.57
2023-01-15T13:09:03.423Z,3.74
2023-01-15T13:14:16.693Z,3.34
2023-01-15T13:19:27.554Z,3.36
2023-01-15T13:24:56.470Z,3.31
2023-01-15T13:30:19.813Z,3.27
2023-01-15T13:35:36.242Z,3.35
2023-01-15T13:40:50.717Z,3.32
2023-01-15T13:45:52.662Z,3.38
2023-01-15T13:50:58.993Z,3.28
2023-01-15T13:56:06.212Z,3.27
2023-01-15T14:01:23.135Z,3.72
2023-01-15T14:06:45.801Z,3.27
2023-01-15T14:12:08.135Z,3.50
2023-01-15T14:17:31.676Z,3.36
2023-01-15T14:22:55.531Z,3.45
2023-01-15T14:28:02.578Z,3.35
2023-01-15T14:33:19.491Z,3.44
2023-01-15T14:38:27.093Z,3.31
2023-01-15T14:43:33.531Z,3.36
2023-01-15T14:48:39.428Z,3.60
2023-01-15T14:53:48.903Z,3.43
2023-01-15T14:59:08.610Z,3.34
2023-01-15T15:04:40.827Z,3.43
2023-01-15T15:09:46.712Z,3.44
2023-01-15T15:15:27.241Z,3.32
2023-01-15T15:20:33.378Z,3.27
2023-01-15T15:25:39.588Z,3.32
2023-01-15T15:30:45.590Z,3.27
2023-01-15T15:35:52.492Z,3.33
2023-01-15T15:40:59.240Z,3.29
2023-01-15T15:46:39.406Z,3.30
2023-01-15T15:51:49.127Z,3.36
2023-01-15T15:56:58.126Z,3.29
2023-01-15T16:02:36.486Z,3.22
2023-01-15T16:07:38.583Z,3.17
2023-01-15T16:13:09.981Z,3.11
2023-01-15T16:18:41.250Z,3.15
2023-01-15T16:23:46.603Z,3.24
2023-01-15T16:28:56.100Z,3.11
2023-01-15T16:33:59.897Z,3.16
2023-01-15T16:39:03.276Z,3.14
2023-01-15T16:44:07.794Z,3.10
2023-01-15T16:49:22.514Z,3.07
2023-01-15T16:54:31.169Z,3.11
2023-01-15T16:59:34.461Z,3.03
2023-01-15T17:04:41.476Z,3.16
2023-01-15T17:10:01.548Z,3.18
2023-01-15T17:15:15.997Z,3.10
2023-01-15T17:20:20.565Z,3.04
2023-01-15T17:25:24.340Z,3.05
2023-01-15T17:30:35.177Z,3.12
2023-01-15T17:35:41.653Z,3.14
2023-01-15T17:40:44.632Z,3.21
2023-01-15T17:45:47.627Z,3.23
2023-01-15T17:50:51.471Z,3.32
2023-01-15T17:56:12.172Z,3.17
2023-01-15T18:01:40.113Z,3.31
2023-01-15T18:06:48.790Z,3.29
2023-01-15T18:11:54.049Z,3.30
2023-01-15T18:16:56.652Z,3.20
2023-01-15T18:22:01.178Z,3.38
2023-01-15T18:27:04.458Z,3.36
2023-01-15T18:32:10.052Z,3.36
2023-01-15T18:37:13.778Z,3.26
2023-01-15T18:42:16.402Z,3.36
2023-01-15T18:47:18.928Z,3.24
2023-01-15T18:52:40.497Z,3.30
2023-01-15T18:57:43.826Z,3.28
2023-01-15T19:02:47.594Z,3.29
2023-01-15T19:07:50.395Z,3.26
2023-01-15T19:12:52.548Z,3.26
2023-01-15T19:18:13.747Z,3.22
2023-01-15T19:23:17.286Z,3.24
2023-01-15T19:28:21.881Z,3.22
2023-01-15T19:33:24.978Z,3.23
2023-01-15T19:38:29.604Z,3.31
2023-01-15T19:43:50.525Z,3.15
2023-01-15T19:49:11.379Z,3.25
2023-01-15T19:54:13.912Z,3.17
2023-01-15T19:59:16.594Z,3.40
2023-01-15T20:04:19.231Z,3.33
2023-01-15T20:09:22.057Z,3.34
2023-01-15T20:14:24.660Z,3.34
2023-01-15T20:19:27.308Z,3.18
2023-01-15T20:24:30.033Z,3.26
2023-01-15T20:29:32.697Z,3.33
2023-01-15T20:34:41.939Z,3.22
2023-01-15T20:39:44.770Z,3.39
2023-01-15T20:44:56.695Z,3.29
2023-01-15T20:49:59.081Z,3.28
2023-01-15T20:55:02.373Z,3.24
2023-01-15T21:00:06.175Z,3.16
2023-01-15T21:05:08.685Z,3.12
2023-01-15T21:10:14.317Z,3.24
2023-01-15T21:15:16.654Z,3.20
2023-01-15T21:20:18.414Z,3.17
2023-01-15T21:25:20.459Z,3.11
2023-01-15T21:30:26.046Z,3.16
2023-01-15T21:35:27.987Z,3.18
2023-01-15T21:40:29.675Z,3.16
2023-01-15T21:45:31.987Z,3.17
2023-01-15T21:50:33.862Z,3.13
2023-01-15T21:55:35.534Z,3.12
2023-01-15T22:00:37.884Z,3.17
2023-01-15T22:05:39.581Z,3.16
2023-01-15T22:10:41.208Z,3.12
2023-01-15T22:15:42.801Z,3.24
2023-01-15T22:20:45.428Z,3.33
2023-01-15T22:25:47.225Z,3.21
2023-01-15T22:30:48.974Z,3.22
2023-01-15T22:35:58.750Z,3.24
2023-01-15T22:41:00.392Z,3.20
2023-01-15T22:46:13.171Z,3.29
2023-01-15T22:51:14.883Z,3.44
2023-01-15T22:56:16.543Z,3.39
2023-01-15T23:01:18.631Z,3.38
2023-01-15T23:06:22.905Z,3.32
2023-01-15T23:11:25.070Z,3.34
2023-01-15T23:16:26.717Z,3.30
2023-01-15T23:21:28.631Z,3.35
2023-01-15T23:26:32.265Z,3.41
2023-01-15T23:31:34.180Z,3.41
2023-01-15T23:36:35.836Z,3.42
2023-01-15T23:41:56.181Z,3.29
2023-01-15T23:46:57.832Z,3.26
2023-01-15T23:52:00.164Z,3.23
2023-01-15T23:57:01.934Z,3.23
